createdAt,value
2023-09-05T00:00:14.530Z,11.82
2023-09-05T00:03:38.570Z,11.63
2023-09-05T00:06:42.683Z,11.63
2023-09-05T00:09:47.929Z,13.25
2023-09-05T00:12:52.731Z,12.70
2023-09-05T00:15:56.796Z,13.50
2023-09-05T00:19:00.588Z,12.15
2023-09-05T00:22:04.438Z,12.98
2023-09-05T00:25:12.348Z,13.20
2023-09-05T00:28:16.808Z,11.05
2023-09-05T00:31:20.509Z,12.40
2023-09-05T00:34:25.074Z,11.32
2023-09-05T00:37:29.134Z,9.93
2023-09-05T00:40:34.497Z,11.00
2023-09-05T00:43:38.063Z,9.98
2023-09-05T00:46:43.575Z,13.43
2023-09-05T00:49:49.683Z,12.55
2023-09-05T00:52:53.769Z,11.88
2023-09-05T00:55:58.710Z,13.70
2023-09-05T00:59:03.072Z,13.75
2023-09-05T01:02:06.777Z,10.23
2023-09-05T01:05:12.402Z,11.55
2023-09-05T01:08:27.692Z,9.30
2023-09-05T01:11:33.591Z,10.52
2023-09-05T01:14:37.165Z,10.73
2023-09-05T01:17:42.161Z,12.23
2023-09-05T01:21:01.194Z,13.93
2023-09-05T01:24:18.556Z,9.15
2023-09-05T01:27:23.916Z,10.90
2023-09-05T01:30:29.957Z,11.23
2023-09-05T01:33:40.040Z,10.98
2023-09-05T01:36:44.160Z,12.20
2023-09-05T01:39:49.180Z,9.23
2023-09-05T01:42:53.219Z,8.45
2023-09-05T01:45:57.191Z,11.88
2023-09-05T01:49:01.722Z,8.37
2023-09-05T01:52:05.812Z,10.90
2023-09-05T01:55:11.618Z,11.95
2023-09-05T01:58:15.245Z,8.73
2023-09-05T02:01:19.169Z,8.75
2023-09-05T02:04:23.420Z,9.27
2023-09-05T02:07:27.585Z,9.93
2023-09-05T02:10:32.937Z,10.03
2023-09-05T02:13:37.084Z,12.30
2023-09-05T02:16:40.799Z,9.13
2023-09-05T02:19:45.222Z,8.73
2023-09-05T02:22:49.027Z,9.02
2023-09-05T02:26:00.560Z,10.45
2023-09-05T02:29:04.435Z,7.82
2023-09-05T02:32:09.094Z,9.20
2023-09-05T02:35:13.793Z,9.23
2023-09-05T02:38:18.561Z,10.50
2023-09-05T02:41:23.769Z,11.67
2023-09-05T02:44:27.740Z,9.80
2023-09-05T02:47:31.617Z,14.27
2023-09-05T02:50:36.093Z,9.30
2023-09-05T02:53:40.559Z,11.55
2023-09-05T02:56:46.224Z,13.18
2023-09-05T02:59:49.964Z,10.57
2023-09-05T03:02:54.053Z,12.77
2023-09-05T03:05:58.103Z,9.02
2023-09-05T03:09:02.589Z,9.77
2023-09-05T03:12:09.052Z,7.77
2023-09-05T03:15:19.896Z,14.45
2023-09-05T03:18:24.248Z,8.90
2023-09-05T03:21:28.477Z,9.23
2023-09-05T03:24:32.979Z,10.20
2023-09-05T03:27:38.416Z,7.90
2023-09-05T03:30:44.538Z,8.52
2023-09-05T03:33:48.830Z,11.43
2023-09-05T03:36:52.608Z,11.77
2023-09-05T03:39:56.995Z,11.40
2023-09-05T03:43:02.037Z,7.53
2023-09-05T03:46:06.266Z,8.45
2023-09-05T03:49:10.118Z,12.95
2023-09-05T03:52:14.020Z,8.83
2023-09-05T03:55:18.026Z,10.38
2023-09-05T03:58:23.428Z,10.05
2023-09-05T04:01:27.354Z,11.82
2023-09-05T04:04:31.614Z,9.75
2023-09-05T04:07:36.943Z,10.10
2023-09-05T04:10:42.026Z,9.70
2023-09-05T04:13:47.228Z,9.90
2023-09-05T04:16:51.093Z,9.88
2023-09-05T04:19:55.732Z,10.88
2023-09-05T04:22:59.635Z,9.67
2023-09-05T04:26:04.369Z,10.65
2023-09-05T04:29:09.774Z,10.15
2023-09-05T04:32:13.329Z,10.05
2023-09-05T04:35:17.705Z,8.48
2023-09-05T04:38:24.006Z,8.95
2023-09-05T04:41:28.220Z,7.75
2023-09-05T04:44:33.649Z,9.50
2023-09-05T04:47:37.868Z,8.82
2023-09-05T04:50:41.561Z,9.60
2023-09-05T04:53:45.601Z,8.37
2023-09-05T04:56:49.180Z,13.43
2023-09-05T04:59:58.967Z,12.05
2023-09-05T05:03:03.081Z,10.38
2023-09-05T05:06:07.306Z,9.45
2023-09-05T05:09:10.981Z,11.90
2023-09-05T05:12:15.277Z,8.93
2023-09-05T05:15:20.400Z,8.63
2023-09-05T05:18:24.356Z,9.25
2023-09-05T05:21:28.344Z,9.48
2023-09-05T05:24:32.257Z,8.30
2023-09-05T05:27:35.814Z,12.98
2023-09-05T05:30:41.278Z,8.52
2023-09-05T05:33:44.981Z,8.35
2023-09-05T05:36:49.144Z,8.48
2023-09-05T05:39:52.952Z,10.50
2023-09-05T05:42:57.022Z,7.97
2023-09-05T05:46:02.019Z,10.40
2023-09-05T05:49:05.838Z,11.65
2023-09-05T05:52:11.850Z,8.00
2023-09-05T05:55:15.776Z,8.73
2023-09-05T05:58:19.501Z,9.55
2023-09-05T06:01:24.905Z,9.70
2023-09-05T06:04:28.843Z,10.45
2023-09-05T06:07:32.771Z,10.43
2023-09-05T06:10:36.904Z,18.65
2023-09-05T06:13:41.086Z,12.27
2023-09-05T06:16:47.673Z,14.90
2023-09-05T06:19:51.621Z,12.18
2023-09-05T06:22:56.545Z,12.63
2023-09-05T06:26:01.000Z,12.27
2023-09-05T06:29:06.241Z,14.30
2023-09-05T06:32:11.750Z,14.18
2023-09-05T06:35:15.472Z,13.93
2023-09-05T06:38:22.582Z,12.20
2023-09-05T06:41:26.181Z,10.75
2023-09-05T06:44:31.448Z,16.30
2023-09-05T06:47:36.456Z,15.80
2023-09-05T06:50:40.363Z,15.32
2023-09-05T06:53:43.913Z,27.58
2023-09-05T06:56:47.878Z,31.73
2023-09-05T06:59:52.571Z,26.00
2023-09-05T07:02:57.934Z,34.70
2023-09-05T07:06:07.466Z,30.90
2023-09-05T07:09:11.701Z,23.02
2023-09-05T07:12:15.218Z,22.77
2023-09-05T07:15:19.313Z,19.30
2023-09-05T07:18:25.456Z,10.63
2023-09-05T07:21:29.614Z,6.95
2023-09-05T07:24:33.165Z,7.28
2023-09-05T07:27:37.107Z,7.47
2023-09-05T07:30:42.046Z,6.15
2023-09-05T07:33:47.663Z,8.50
2023-09-05T07:36:52.295Z,8.20
2023-09-05T07:39:56.656Z,7.32
2023-09-05T07:43:01.714Z,12.35
2023-09-05T07:46:06.034Z,12.57
2023-09-05T07:49:11.279Z,11.40
2023-09-05T07:52:15.527Z,10.77
2023-09-05T07:55:19.444Z,11.25
2023-09-05T07:58:24.036Z,10.90
2023-09-05T08:01:28.413Z,7.50
2023-09-05T08:04:33.831Z,9.23
2023-09-05T08:07:39.364Z,9.23
2023-09-05T08:10:44.262Z,9.85
2023-09-05T08:13:47.970Z,10.10
2023-09-05T08:16:54.510Z,10.05
2023-09-05T08:19:59.898Z,7.00
2023-09-05T08:23:03.838Z,8.65
2023-09-05T08:26:12.472Z,8.52
2023-09-05T08:29:16.961Z,9.63
2023-09-05T08:32:21.155Z,6.25
2023-09-05T08:35:26.567Z,7.32
2023-09-05T08:38:30.373Z,5.07
2023-09-05T08:41:35.050Z,6.65
2023-09-05T08:44:42.001Z,5.47
2023-09-05T08:47:46.140Z,4.95
2023-09-05T08:50:51.182Z,5.90
2023-09-05T08:53:59.189Z,4.55
2023-09-05T08:57:04.738Z,4.55
2023-09-05T09:00:10.331Z,4.22
2023-09-05T09:03:14.379Z,5.97
2023-09-05T09:06:25.612Z,5.15
2023-09-05T09:09:37.528Z,7.28
2023-09-05T09:12:41.419Z,5.60
2023-09-05T09:15:47.273Z,5.57
2023-09-05T09:18:52.302Z,9.63
2023-09-05T09:22:01.610Z,7.43
2023-09-05T09:25:11.963Z,5.90
2023-09-05T09:28:24.711Z,5.70
2023-09-05T09:31:29.075Z,7.38
2023-09-05T09:34:33.857Z,8.77
2023-09-05T09:37:39.140Z,8.02
2023-09-05T09:40:43.134Z,7.57
2023-09-05T09:43:55.866Z,5.97
2023-09-05T09:47:01.219Z,4.53
2023-09-05T09:50:05.550Z,8.73
2023-09-05T09:53:16.634Z,7.93
2023-09-05T09:56:22.866Z,4.97
2023-09-05T09:59:28.185Z,8.25
2023-09-05T10:02:33.057Z,6.18
2023-09-05T10:05:37.833Z,6.10
2023-09-05T10:08:46.920Z,6.13
2023-09-05T10:11:53.253Z,6.00
2023-09-05T10:14:59.252Z,10.18
2023-09-05T10:18:04.215Z,8.48
2023-09-05T10:21:09.175Z,6.57
2023-09-05T10:24:15.222Z,5.22
2023-09-05T10:27:19.449Z,5.60
2023-09-05T10:30:24.174Z,6.80
2023-09-05T10:33:35.378Z,5.13
2023-09-05T10:36:42.982Z,6.90
2023-09-05T10:39:50.013Z,6.38
2023-09-05T10:42:57.058Z,5.60
2023-09-05T10:46:02.644Z,3.97
2023-09-05T10:49:15.910Z,3.13
2023-09-05T10:52:21.048Z,4.05
2023-09-05T10:55:45.717Z,3.92
2023-09-05T10:58:55.425Z,3.78
2023-09-05T11:02:01.704Z,3.60
2023-09-05T11:05:08.164Z,3.23
2023-09-05T11:08:22.613Z,4.05
2023-09-05T11:11:28.136Z,4.05
2023-09-05T11:14:33.663Z,4.70
2023-09-05T11:17:38.878Z,5.28
2023-09-05T11:20:44.922Z,4.37
2023-09-05T11:23:54.076Z,3.97
2023-09-05T11:26:59.071Z,5.10
2023-09-05T11:30:08.132Z,3.78
2023-09-05T11:33:15.195Z,6.90
2023-09-05T11:36:19.390Z,5.13
2023-09-05T11:39:28.297Z,3.42
2023-09-05T11:42:33.533Z,3.67
2023-09-05T11:45:38.375Z,5.53
2023-09-05T11:48:44.879Z,5.40
2023-09-05T11:51:48.653Z,4.20
2023-09-05T11:54:54.602Z,5.68
2023-09-05T11:58:01.302Z,4.43
2023-09-05T12:01:05.472Z,4.25
2023-09-05T12:04:09.293Z,4.40
2023-09-05T12:07:13.149Z,4.07
2023-09-05T12:10:16.760Z,3.53
2023-09-05T12:13:23.092Z,4.50
2023-09-05T12:16:26.900Z,3.58
2023-09-05T12:19:30.885Z,4.90
2023-09-05T12:22:34.425Z,3.43
2023-09-05T12:25:50.559Z,3.87
2023-09-05T12:29:01.097Z,3.88
2023-09-05T12:32:07.027Z,4.90
2023-09-05T12:35:10.961Z,3.03
2023-09-05T12:38:16.701Z,5.00
2023-09-05T12:41:20.230Z,3.53
2023-09-05T12:44:27.425Z,5.20
2023-09-05T12:47:31.953Z,4.78
2023-09-05T12:50:37.679Z,3.28
2023-09-05T12:53:41.305Z,7.17
2023-09-05T12:56:46.097Z,3.90
2023-09-05T12:59:51.233Z,3.70
2023-09-05T13:02:55.300Z,3.72
2023-09-05T13:05:58.967Z,5.28
2023-09-05T13:09:03.936Z,4.10
2023-09-05T13:12:08.577Z,3.53
2023-09-05T13:15:13.827Z,3.10
2023-09-05T13:18:17.896Z,4.35
2023-09-05T13:21:22.197Z,3.65
2023-09-05T13:24:26.106Z,3.53
2023-09-05T13:27:30.092Z,6.23
2023-09-05T13:30:35.589Z,4.15
2023-09-05T13:33:40.319Z,3.25
2023-09-05T13:36:44.110Z,4.63
2023-09-05T13:39:48.597Z,8.93
2023-09-05T13:42:54.239Z,2.90
2023-09-05T13:45:59.746Z,3.80
2023-09-05T13:49:03.585Z,3.10
2023-09-05T13:52:11.432Z,3.30
2023-09-05T13:55:15.401Z,3.57
2023-09-05T13:58:19.245Z,3.03
2023-09-05T14:01:24.370Z,3.72
2023-09-05T14:04:28.196Z,3.63
2023-09-05T14:07:31.872Z,3.75
2023-09-05T14:10:35.735Z,3.13
2023-09-05T14:13:39.258Z,4.37
2023-09-05T14:16:44.564Z,3.38
2023-09-05T14:19:48.482Z,5.00
2023-09-05T14:22:52.191Z,3.30
2023-09-05T14:25:55.908Z,5.20
2023-09-05T14:29:02.149Z,4.93
2023-09-05T14:32:07.720Z,4.63
2023-09-05T14:35:12.107Z,7.22
2023-09-05T14:38:15.683Z,3.50
2023-09-05T14:41:19.472Z,3.30
2023-09-05T14:44:23.126Z,4.67
2023-09-05T14:47:28.694Z,3.42
2023-09-05T14:50:32.616Z,4.10
2023-09-05T14:53:36.582Z,3.63
2023-09-05T14:56:40.597Z,4.97
2023-09-05T14:59:44.871Z,3.47
2023-09-05T15:02:49.891Z,5.63
2023-09-05T15:05:54.291Z,4.00
2023-09-05T15:08:58.115Z,4.50
2023-09-05T15:12:02.051Z,7.50
2023-09-05T15:15:06.665Z,4.33
2023-09-05T15:18:12.097Z,6.25
2023-09-05T15:21:16.475Z,5.38
2023-09-05T15:24:20.438Z,5.70
2023-09-05T15:27:24.315Z,4.00
2023-09-05T15:30:28.375Z,3.70
2023-09-05T15:33:34.187Z,4.40
2023-09-05T15:36:38.303Z,5.18
2023-09-05T15:39:42.549Z,6.40
2023-09-05T15:42:46.795Z,4.90
2023-09-05T15:45:52.345Z,3.53
2023-09-05T15:48:58.073Z,3.22
2023-09-05T15:52:03.024Z,3.90
2023-09-05T15:55:08.215Z,3.33
2023-09-05T15:58:12.140Z,5.00
2023-09-05T16:01:16.493Z,5.87
2023-09-05T16:04:21.946Z,3.00
2023-09-05T16:07:25.904Z,3.03
2023-09-05T16:10:29.921Z,3.67
2023-09-05T16:13:41.808Z,3.50
2023-09-05T16:17:10.614Z,4.03
2023-09-05T16:20:16.324Z,3.75
2023-09-05T16:23:20.823Z,3.80
2023-09-05T16:26:25.030Z,4.32
2023-09-05T16:29:28.763Z,4.70
2023-09-05T16:32:32.840Z,4.67
2023-09-05T16:35:37.968Z,4.40
2023-09-05T16:38:41.711Z,4.38
2023-09-05T16:41:45.592Z,3.38
2023-09-05T16:44:49.489Z,4.73
2023-09-05T16:47:53.077Z,4.80
2023-09-05T16:50:59.317Z,4.47
2023-09-05T16:54:02.824Z,4.28
2023-09-05T16:57:06.914Z,5.10
2023-09-05T17:00:12.396Z,5.37
2023-09-05T17:03:16.246Z,5.50
2023-09-05T17:06:21.404Z,4.85
2023-09-05T17:09:25.273Z,4.75
2023-09-05T17:12:29.180Z,4.50
2023-09-05T17:15:33.048Z,5.40
2023-09-05T17:18:38.215Z,4.25
2023-09-05T17:21:43.443Z,4.57
2023-09-05T17:24:48.263Z,3.95
2023-09-05T17:27:52.161Z,4.57
2023-09-05T17:30:55.929Z,4.80
2023-09-05T17:34:00.043Z,3.85
2023-09-05T17:37:08.045Z,5.05
2023-09-05T17:40:13.845Z,7.07
2023-09-05T17:43:17.511Z,7.43
2023-09-05T17:46:21.636Z,6.33
2023-09-05T17:49:25.194Z,5.50
2023-09-05T17:52:30.942Z,6.05
2023-09-05T17:55:34.578Z,5.90
2023-09-05T17:58:38.727Z,5.00
2023-09-05T18:01:42.680Z,7.83
2023-09-05T18:04:47.092Z,5.38
2023-09-05T18:07:52.512Z,7.18
2023-09-05T18:11:05.336Z,5.25
2023-09-05T18:14:12.674Z,7.32
2023-09-05T18:20:25.982Z,6.57
2023-09-05T18:23:29.934Z,5.75
2023-09-05T18:26:34.963Z,5.75
2023-09-05T18:29:39.010Z,5.43
2023-09-05T18:32:42.536Z,6.18
2023-09-05T18:35:47.877Z,6.18
2023-09-05T18:38:51.790Z,6.25
2023-09-05T18:41:55.558Z,5.40
2023-09-05T18:44:59.230Z,7.65
2023-09-05T18:48:04.493Z,9.80
2023-09-05T18:51:12.512Z,7.45
2023-09-05T18:54:16.488Z,5.90
2023-09-05T18:57:20.521Z,7.68
2023-09-05T19:00:24.816Z,5.88
2023-09-05T19:03:28.668Z,8.07
2023-09-05T19:06:34.264Z,5.20
2023-09-05T19:09:38.333Z,8.15
2023-09-05T19:12:42.320Z,9.00
2023-09-05T19:15:47.093Z,8.43
2023-09-05T19:18:51.957Z,7.53
2023-09-05T19:21:57.369Z,7.88
2023-09-05T19:25:02.287Z,5.90
2023-09-05T19:28:07.454Z,8.50
2023-09-05T19:31:16.042Z,7.18
2023-09-05T19:34:19.821Z,7.93
2023-09-05T19:37:25.410Z,7.50
2023-09-05T19:40:31.450Z,6.63
2023-09-05T19:43:35.259Z,7.20
2023-09-05T19:46:39.437Z,6.55
2023-09-05T19:49:43.157Z,7.80
2023-09-05T19:52:49.032Z,8.93
2023-09-05T19:55:53.088Z,6.57
2023-09-05T19:58:58.113Z,5.80
2023-09-05T20:02:03.566Z,7.88
2023-09-05T20:05:09.082Z,6.97
2023-09-05T20:08:15.981Z,6.70
2023-09-05T20:11:20.778Z,8.07
2023-09-05T20:14:24.412Z,7.20
2023-09-05T20:17:28.756Z,8.20
2023-09-05T20:20:32.473Z,7.50
2023-09-05T20:23:37.820Z,10.63
2023-09-05T20:26:41.817Z,8.10
2023-09-05T20:29:45.940Z,8.07
2023-09-05T20:32:50.048Z,5.03
2023-09-05T20:35:55.176Z,7.07
2023-09-05T20:39:00.489Z,7.88
2023-09-05T20:42:05.342Z,8.80
2023-09-05T20:45:13.406Z,8.40
2023-09-05T20:48:17.597Z,7.00
2023-09-05T20:51:21.666Z,8.93
2023-09-05T20:54:27.102Z,8.02
2023-09-05T20:57:31.064Z,6.63
2023-09-05T21:00:35.206Z,8.02
2023-09-05T21:03:39.724Z,6.20
2023-09-05T21:06:43.500Z,8.15
2023-09-05T21:09:48.860Z,13.00
2023-09-05T21:12:52.946Z,9.05
2023-09-05T21:15:57.978Z,9.30
2023-09-05T21:19:02.414Z,7.63
2023-09-05T21:22:06.522Z,8.55
2023-09-05T21:25:13.106Z,8.18
2023-09-05T21:28:17.067Z,10.05
2023-09-05T21:31:21.163Z,8.80
2023-09-05T21:34:25.216Z,9.77
2023-09-05T21:37:28.945Z,9.30
2023-09-05T21:40:34.374Z,10.53
2023-09-05T21:43:38.501Z,9.70
2023-09-05T21:46:42.230Z,10.25
2023-09-05T21:49:46.222Z,7.60
2023-09-05T21:52:49.944Z,11.20
2023-09-05T21:55:55.250Z,9.00
2023-09-05T21:58:59.202Z,7.63
2023-09-05T22:02:03.260Z,8.07
2023-09-05T22:05:08.062Z,9.07
2023-09-05T22:08:11.830Z,9.00
2023-09-05T22:11:17.236Z,9.20
2023-09-05T22:14:24.334Z,9.60
2023-09-05T22:17:28.112Z,10.10
2023-09-05T22:20:41.109Z,9.57
2023-09-05T22:23:52.422Z,9.55
2023-09-05T22:26:59.834Z,9.25
2023-09-05T22:30:09.590Z,9.85
2023-09-05T22:33:13.565Z,13.88
2023-09-05T22:36:17.539Z,10.57
2023-09-05T22:39:21.681Z,13.40
2023-09-05T22:42:28.025Z,11.50
2023-09-05T22:45:32.123Z,11.02
2023-09-05T22:48:35.924Z,14.18
2023-09-05T22:51:39.871Z,13.57
2023-09-05T22:54:44.316Z,9.70
2023-09-05T22:57:51.256Z,11.63
2023-09-05T23:00:55.710Z,10.52
2023-09-05T23:03:59.844Z,12.18
2023-09-05T23:07:05.421Z,9.77
2023-09-05T23:10:09.489Z,12.50
2023-09-05T23:13:14.915Z,10.20
2023-09-05T23:16:19.283Z,11.45
2023-09-05T23:19:23.205Z,12.18
2023-09-05T23:22:28.635Z,11.93
2023-09-05T23:25:36.494Z,12.18
2023-09-05T23:28:41.659Z,13.00
2023-09-05T23:31:45.581Z,10.50
2023-09-05T23:34:49.381Z,13.25
2023-09-05T23:37:55.886Z,14.88
2023-09-05T23:40:59.596Z,14.57
2023-09-05T23:44:05.606Z,16.90
2023-09-05T23:47:11.252Z,13.55
2023-09-05T23:50:15.397Z,12.73
2023-09-05T23:53:19.348Z,12.83
2023-09-05T23:56:23.582Z,12.35
2023-09-05T23:59:29.267Z,12.70
